sensor_id;sensor_type;location;lat;lon;timestamp;pressure;altitude;pressure_sealevel;temperature;humidity
60646;BME280;46462;32.608;-117.032;2023-05-08T00:01:36;99612.05;;;22.94;41.14
60646;BME280;46462;32.608;-117.032;2023-05-08T00:04:07;99613.07;;;22.87;41.64
60646;BME280;46462;32.608;-117.032;2023-05-08T00:06:38;99619.48;;;22.88;41.77
60646;BME280;46462;32.608;-117.032;2023-05-08T00:09:09;99618.33;;;22.95;41.58
60646;BME280;46462;32.608;-117.032;2023-05-08T00:11:40;99620.62;;;23.04;40.94
60646;BME280;46462;32.608;-117.032;2023-05-08T00:14:10;99620.85;;;22.97;41.27
60646;BME280;46462;32.608;-117.032;2023-05-08T00:16:41;99620.25;;;23.01;41.39
60646;BME280;46462;32.608;-117.032;2023-05-08T00:19:12;99618.63;;;22.94;41.51
60646;BME280;46462;32.608;-117.032;2023-05-08T00:21:42;99622.32;;;22.95;41.80
60646;BME280;46462;32.608;-117.032;2023-05-08T00:24:13;99620.88;;;22.97;41.67
60646;BME280;46462;32.608;-117.032;2023-05-08T00:26:44;99618.42;;;22.96;41.73
60646;BME280;46462;32.608;-117.032;2023-05-08T00:29:15;99615.80;;;22.94;41.98
60646;BME280;46462;32.608;-117.032;2023-05-08T00:31:46;99613.25;;;23.03;41.62
60646;BME280;46462;32.608;-117.032;2023-05-08T00:34:16;99612.10;;;23.03;41.39
60646;BME280;46462;32.608;-117.032;2023-05-08T00:36:47;99606.98;;;23.02;41.46
60646;BME280;46462;32.608;-117.032;2023-05-08T00:39:18;99605.31;;;23.02;41.61
60646;BME280;46462;32.608;-117.032;2023-05-08T00:41:49;99607.75;;;23.01;41.57
60646;BME280;46462;32.608;-117.032;2023-05-08T00:44:19;99607.67;;;23.02;41.88
60646;BME280;46462;32.608;-117.032;2023-05-08T00:46:50;99609.97;;;22.99;41.98
60646;BME280;46462;32.608;-117.032;2023-05-08T00:49:21;99610.51;;;23.03;41.58
60646;BME280;46462;32.608;-117.032;2023-05-08T00:51:53;99607.70;;;23.05;41.51
60646;BME280;46462;32.608;-117.032;2023-05-08T00:54:23;99600.31;;;23.05;41.53
60646;BME280;46462;32.608;-117.032;2023-05-08T00:56:54;99597.09;;;23.09;41.38
60646;BME280;46462;32.608;-117.032;2023-05-08T00:59:24;99590.77;;;23.08;41.37
60646;BME280;46462;32.608;-117.032;2023-05-08T01:01:55;99595.57;;;23.11;41.36
60646;BME280;46462;32.608;-117.032;2023-05-08T01:04:26;99595.96;;;23.11;41.39
60646;BME280;46462;32.608;-117.032;2023-05-08T01:06:56;99599.99;;;23.12;41.42
60646;BME280;46462;32.608;-117.032;2023-05-08T01:09:27;99602.38;;;23.12;41.50
60646;BME280;46462;32.608;-117.032;2023-05-08T01:12:06;99596.94;;;23.12;41.40
60646;BME280;46462;32.608;-117.032;2023-05-08T01:14:40;99594.87;;;23.10;41.48
60646;BME280;46462;32.608;-117.032;2023-05-08T01:17:07;99594.74;;;23.13;41.51
60646;BME280;46462;32.608;-117.032;2023-05-08T01:19:41;99592.25;;;23.10;41.60
60646;BME280;46462;32.608;-117.032;2023-05-08T01:22:18;99596.53;;;23.10;41.58
60646;BME280;46462;32.608;-117.032;2023-05-08T01:29:46;99595.76;;;23.11;41.63
60646;BME280;46462;32.608;-117.032;2023-05-08T01:32:11;99593.01;;;23.08;41.62
60646;BME280;46462;32.608;-117.032;2023-05-08T01:34:37;99592.92;;;23.05;41.85
60646;BME280;46462;32.608;-117.032;2023-05-08T01:37:10;99593.46;;;23.15;41.66
60646;BME280;46462;32.608;-117.032;2023-05-08T01:39:43;99594.26;;;23.16;41.48
60646;BME280;46462;32.608;-117.032;2023-05-08T01:42:16;99591.93;;;23.16;41.45
60646;BME280;46462;32.608;-117.032;2023-05-08T01:44:40;99589.82;;;23.17;41.46
60646;BME280;46462;32.608;-117.032;2023-05-08T01:47:10;99586.85;;;23.17;41.56
60646;BME280;46462;32.608;-117.032;2023-05-08T01:49:44;99585.34;;;23.17;41.57
60646;BME280;46462;32.608;-117.032;2023-05-08T01:52:15;99584.89;;;23.15;41.58
60646;BME280;46462;32.608;-117.032;2023-05-08T01:54:47;99588.91;;;23.14;41.61
60646;BME280;46462;32.608;-117.032;2023-05-08T01:57:12;99590.25;;;23.15;41.61
60646;BME280;46462;32.608;-117.032;2023-05-08T01:59:42;99586.86;;;23.07;41.67
60646;BME280;46462;32.608;-117.032;2023-05-08T02:02:13;99584.34;;;23.16;41.56
60646;BME280;46462;32.608;-117.032;2023-05-08T02:04:44;99586.68;;;23.07;41.74
60646;BME280;46462;32.608;-117.032;2023-05-08T02:07:14;99587.95;;;23.08;41.73
60646;BME280;46462;32.608;-117.032;2023-05-08T02:09:45;99589.54;;;23.12;41.66
60646;BME280;46462;32.608;-117.032;2023-05-08T02:12:17;99590.97;;;23.03;41.82
60646;BME280;46462;32.608;-117.032;2023-05-08T02:14:48;99593.30;;;23.07;41.75
60646;BME280;46462;32.608;-117.032;2023-05-08T02:17:17;99594.46;;;23.01;41.89
60646;BME280;46462;32.608;-117.032;2023-05-08T02:19:49;99595.33;;;23.01;41.88
60646;BME280;46462;32.608;-117.032;2023-05-08T02:22:21;99595.53;;;23.10;41.65
60646;BME280;46462;32.608;-117.032;2023-05-08T02:24:53;99597.49;;;23.07;41.73
60646;BME280;46462;32.608;-117.032;2023-05-08T02:27:22;99601.75;;;23.13;41.57
60646;BME280;46462;32.608;-117.032;2023-05-08T02:29:53;99605.16;;;23.08;41.65
60646;BME280;46462;32.608;-117.032;2023-05-08T02:32:25;99607.76;;;23.07;41.67
60646;BME280;46462;32.608;-117.032;2023-05-08T02:34:54;99605.45;;;23.11;41.55
60646;BME280;46462;32.608;-117.032;2023-05-08T02:37:24;99613.39;;;23.15;41.47
60646;BME280;46462;32.608;-117.032;2023-05-08T02:39:56;99619.95;;;23.08;41.58
60646;BME280;46462;32.608;-117.032;2023-05-08T02:42:27;99619.31;;;23.05;41.59
60646;BME280;46462;32.608;-117.032;2023-05-08T02:44:56;99616.60;;;23.05;41.62
60646;BME280;46462;32.608;-117.032;2023-05-08T02:47:33;99618.36;;;23.07;41.53
60646;BME280;46462;32.608;-117.032;2023-05-08T02:50:02;99622.96;;;23.11;41.43
60646;BME280;46462;32.608;-117.032;2023-05-08T02:52:31;99620.38;;;23.09;41.46
60646;BME280;46462;32.608;-117.032;2023-05-08T02:55:03;99620.03;;;23.12;41.39
60646;BME280;46462;32.608;-117.032;2023-05-08T02:57:38;99622.99;;;23.08;41.47
60646;BME280;46462;32.608;-117.032;2023-05-08T03:00:04;99620.72;;;23.06;41.51
60646;BME280;46462;32.608;-117.032;2023-05-08T03:02:37;99618.85;;;23.06;41.48
60646;BME280;46462;32.608;-117.032;2023-05-08T03:05:18;99619.72;;;23.06;41.46
60646;BME280;46462;32.608;-117.032;2023-05-08T03:07:37;99618.08;;;23.06;41.43
60646;BME280;46462;32.608;-117.032;2023-05-08T03:10:11;99618.57;;;23.04;41.45
60646;BME280;46462;32.608;-117.032;2023-05-08T03:12:42;99619.15;;;23.07;41.38
60646;BME280;46462;32.608;-117.032;2023-05-08T03:15:12;99619.99;;;23.05;41.37
60646;BME280;46462;32.608;-117.032;2023-05-08T03:17:39;99623.18;;;23.06;41.36
60646;BME280;46462;32.608;-117.032;2023-05-08T03:20:13;99623.26;;;23.05;41.36
60646;BME280;46462;32.608;-117.032;2023-05-08T03:22:41;99622.52;;;23.04;41.36
60646;BME280;46462;32.608;-117.032;2023-05-08T03:25:11;99622.57;;;23.04;41.38
60646;BME280;46462;32.608;-117.032;2023-05-08T03:27:42;99620.29;;;23.11;41.26
60646;BME280;46462;32.608;-117.032;2023-05-08T03:30:13;99621.22;;;23.01;41.57
60646;BME280;46462;32.608;-117.032;2023-05-08T03:32:45;99625.54;;;23.02;41.51
60646;BME280;46462;32.608;-117.032;2023-05-08T03:35:14;99633.90;;;23.05;41.55
60646;BME280;46462;32.608;-117.032;2023-05-08T03:37:44;99633.37;;;22.97;41.79
60646;BME280;46462;32.608;-117.032;2023-05-08T03:40:15;99636.31;;;22.90;41.93
60646;BME280;46462;32.608;-117.032;2023-05-08T03:42:47;99637.33;;;22.87;42.12
60646;BME280;46462;32.608;-117.032;2023-05-08T03:45:17;99641.39;;;22.89;41.98
60646;BME280;46462;32.608;-117.032;2023-05-08T03:47:47;99643.26;;;23.15;41.51
60646;BME280;46462;32.608;-117.032;2023-05-08T03:50:18;99647.64;;;23.09;41.54
60646;BME280;46462;32.608;-117.032;2023-05-08T03:52:49;99652.79;;;23.16;41.44
60646;BME280;46462;32.608;-117.032;2023-05-08T03:55:19;99655.75;;;23.10;41.55
60646;BME280;46462;32.608;-117.032;2023-05-08T03:57:56;99660.29;;;23.17;41.44
60646;BME280;46462;32.608;-117.032;2023-05-08T04:00:26;99660.85;;;23.29;41.23
60646;BME280;46462;32.608;-117.032;2023-05-08T04:02:59;99664.35;;;23.18;41.40
60646;BME280;46462;32.608;-117.032;2023-05-08T04:05:28;99667.27;;;23.24;41.28
60646;BME280;46462;32.608;-117.032;2023-05-08T04:07:58;99665.01;;;23.16;41.45
60646;BME280;46462;32.608;-117.032;2023-05-08T04:10:29;99662.76;;;23.25;41.24
60646;BME280;46462;32.608;-117.032;2023-05-08T04:12:59;99663.33;;;23.17;41.35
60646;BME280;46462;32.608;-117.032;2023-05-08T04:15:28;99663.32;;;23.16;41.35
60646;BME280;46462;32.608;-117.032;2023-05-08T04:17:59;99667.83;;;23.11;41.51
60646;BME280;46462;32.608;-117.032;2023-05-08T04:20:29;99671.88;;;23.25;41.23
60646;BME280;46462;32.608;-117.032;2023-05-08T04:22:58;99671.91;;;23.14;41.38
60646;BME280;46462;32.608;-117.032;2023-05-08T04:25:29;99671.19;;;23.15;41.37
60646;BME280;46462;32.608;-117.032;2023-05-08T04:28:00;99670.54;;;23.16;41.33
60646;BME280;46462;32.608;-117.032;2023-05-08T04:30:30;99665.55;;;23.17;41.34
60646;BME280;46462;32.608;-117.032;2023-05-08T04:33:02;99665.15;;;23.09;41.47
60646;BME280;46462;32.608;-117.032;2023-05-08T04:35:33;99667.16;;;23.05;41.53
60646;BME280;46462;32.608;-117.032;2023-05-08T04:38:02;99668.28;;;22.94;41.78
60646;BME280;46462;32.608;-117.032;2023-05-08T04:40:33;99668.59;;;22.95;41.78
60646;BME280;46462;32.608;-117.032;2023-05-08T04:43:04;99670.21;;;22.89;41.90
60646;BME280;46462;32.608;-117.032;2023-05-08T04:45:34;99672.83;;;22.85;42.03
60646;BME280;46462;32.608;-117.032;2023-05-08T04:48:05;99672.78;;;22.89;41.97
60646;BME280;46462;32.608;-117.032;2023-05-08T04:50:36;99675.91;;;22.88;41.97
60646;BME280;46462;32.608;-117.032;2023-05-08T04:53:06;99675.74;;;22.88;41.97
60646;BME280;46462;32.608;-117.032;2023-05-08T04:55:37;99678.34;;;22.88;41.97
60646;BME280;46462;32.608;-117.032;2023-05-08T04:58:10;99676.67;;;22.89;41.95
60646;BME280;46462;32.608;-117.032;2023-05-08T05:00:39;99676.41;;;22.79;42.18
60646;BME280;46462;32.608;-117.032;2023-05-08T05:03:10;99671.79;;;22.79;42.19
60646;BME280;46462;32.608;-117.032;2023-05-08T05:05:40;99671.09;;;22.75;42.32
60646;BME280;46462;32.608;-117.032;2023-05-08T05:08:11;99674.16;;;22.83;42.14
60646;BME280;46462;32.608;-117.032;2023-05-08T05:10:42;99674.08;;;22.77;42.26
60646;BME280;46462;32.608;-117.032;2023-05-08T05:13:13;99670.66;;;22.71;42.38
60646;BME280;46462;32.608;-117.032;2023-05-08T05:15:43;99674.17;;;22.72;42.41
60646;BME280;46462;32.608;-117.032;2023-05-08T05:18:14;99674.17;;;22.73;42.33
60646;BME280;46462;32.608;-117.032;2023-05-08T05:20:45;99674.83;;;22.76;42.29
60646;BME280;46462;32.608;-117.032;2023-05-08T05:23:16;99672.48;;;22.78;42.24
60646;BME280;46462;32.608;-117.032;2023-05-08T05:25:46;99670.91;;;22.80;42.18
60646;BME280;46462;32.608;-117.032;2023-05-08T05:28:17;99671.41;;;22.80;42.21
60646;BME280;46462;32.608;-117.032;2023-05-08T05:30:48;99669.39;;;22.78;42.22
60646;BME280;46462;32.608;-117.032;2023-05-08T05:33:19;99669.10;;;22.83;42.14
60646;BME280;46462;32.608;-117.032;2023-05-08T05:35:50;99672.97;;;22.72;42.35
60646;BME280;46462;32.608;-117.032;2023-05-08T05:38:20;99671.48;;;22.70;42.41
60646;BME280;46462;32.608;-117.032;2023-05-08T05:40:51;99668.97;;;22.70;42.40
60646;BME280;46462;32.608;-117.032;2023-05-08T05:43:22;99665.92;;;22.77;42.22
60646;BME280;46462;32.608;-117.032;2023-05-08T05:45:52;99662.82;;;22.77;42.24
60646;BME280;46462;32.608;-117.032;2023-05-08T05:48:23;99659.99;;;22.76;42.25
60646;BME280;46462;32.608;-117.032;2023-05-08T05:50:54;99658.95;;;22.75;42.27
60646;BME280;46462;32.608;-117.032;2023-05-08T05:53:25;99658.84;;;22.64;42.51
60646;BME280;46462;32.608;-117.032;2023-05-08T05:55:55;99655.18;;;22.65;42.47
60646;BME280;46462;32.608;-117.032;2023-05-08T05:58:26;99656.20;;;22.66;42.46
60646;BME280;46462;32.608;-117.032;2023-05-08T06:00:58;99654.48;;;22.66;42.46
60646;BME280;46462;32.608;-117.032;2023-05-08T06:03:28;99655.06;;;22.68;42.42
60646;BME280;46462;32.608;-117.032;2023-05-08T06:05:58;99649.95;;;22.62;42.55
60646;BME280;46462;32.608;-117.032;2023-05-08T06:08:29;99649.88;;;22.70;42.33
60646;BME280;46462;32.608;-117.032;2023-05-08T06:11:00;99651.84;;;22.77;42.19
60646;BME280;46462;32.608;-117.032;2023-05-08T06:13:31;99652.96;;;22.72;42.28
60646;BME280;46462;32.608;-117.032;2023-05-08T06:16:01;99651.58;;;22.64;42.44
60646;BME280;46462;32.608;-117.032;2023-05-08T06:18:32;99651.61;;;22.62;42.50
60646;BME280;46462;32.608;-117.032;2023-05-08T06:21:03;99651.25;;;22.61;42.52
60646;BME280;46462;32.608;-117.032;2023-05-08T06:23:34;99652.71;;;22.60;42.54
60646;BME280;46462;32.608;-117.032;2023-05-08T06:26:04;99645.20;;;22.61;42.50
60646;BME280;46462;32.608;-117.032;2023-05-08T06:28:35;99645.18;;;22.60;42.52
60646;BME280;46462;32.608;-117.032;2023-05-08T06:31:06;99641.77;;;22.63;42.41
60646;BME280;46462;32.608;-117.032;2023-05-08T06:33:37;99639.81;;;22.59;42.51
60646;BME280;46462;32.608;-117.032;2023-05-08T06:36:08;99640.24;;;22.64;42.39
60646;BME280;46462;32.608;-117.032;2023-05-08T06:38:38;99638.70;;;22.69;42.24
60646;BME280;46462;32.608;-117.032;2023-05-08T06:41:09;99638.04;;;22.68;42.25
60646;BME280;46462;32.608;-117.032;2023-05-08T06:43:40;99638.63;;;22.71;42.16
60646;BME280;46462;32.608;-117.032;2023-05-08T06:46:10;99634.41;;;22.72;42.15
60646;BME280;46462;32.608;-117.032;2023-05-08T06:48:41;99629.08;;;22.71;42.13
60646;BME280;46462;32.608;-117.032;2023-05-08T06:51:12;99625.87;;;22.63;42.28
60646;BME280;46462;32.608;-117.032;2023-05-08T06:53:43;99627.53;;;22.74;42.04
60646;BME280;46462;32.608;-117.032;2023-05-08T06:56:13;99625.85;;;22.75;41.98
60646;BME280;46462;32.608;-117.032;2023-05-08T06:58:44;99624.09;;;22.71;42.01
60646;BME280;46462;32.608;-117.032;2023-05-08T07:01:15;99625.84;;;22.65;42.17
60646;BME280;46462;32.608;-117.032;2023-05-08T07:03:45;99625.71;;;22.77;41.88
60646;BME280;46462;32.608;-117.032;2023-05-08T07:06:16;99626.24;;;22.80;41.82
60646;BME280;46462;32.608;-117.032;2023-05-08T07:08:47;99624.81;;;22.76;41.87
60646;BME280;46462;32.608;-117.032;2023-05-08T07:11:18;99621.17;;;22.65;42.06
60646;BME280;46462;32.608;-117.032;2023-05-08T07:13:49;99620.82;;;22.76;41.82
60646;BME280;46462;32.608;-117.032;2023-05-08T07:16:19;99617.57;;;22.72;41.88
60646;BME280;46462;32.608;-117.032;2023-05-08T07:18:51;99615.91;;;22.73;41.85
60646;BME280;46462;32.608;-117.032;2023-05-08T07:21:21;99611.76;;;22.68;41.92
60646;BME280;46462;32.608;-117.032;2023-05-08T07:23:52;99612.89;;;22.70;41.87
60646;BME280;46462;32.608;-117.032;2023-05-08T07:26:22;99613.93;;;22.70;41.83
60646;BME280;46462;32.608;-117.032;2023-05-08T07:28:53;99615.70;;;22.71;41.80
60646;BME280;46462;32.608;-117.032;2023-05-08T07:31:24;99615.41;;;22.84;41.51
60646;BME280;46462;32.608;-117.032;2023-05-08T07:33:54;99614.90;;;22.84;41.46
60646;BME280;46462;32.608;-117.032;2023-05-08T07:36:25;99612.08;;;22.83;41.47
60646;BME280;46462;32.608;-117.032;2023-05-08T07:38:56;99612.07;;;22.85;41.40
60646;BME280;46462;32.608;-117.032;2023-05-08T07:41:27;99611.63;;;22.79;41.48
60646;BME280;46462;32.608;-117.032;2023-05-08T07:43:58;99612.10;;;22.82;41.38
60646;BME280;46462;32.608;-117.032;2023-05-08T07:46:28;99608.88;;;22.80;41.42
60646;BME280;46462;32.608;-117.032;2023-05-08T07:48:59;99606.72;;;22.75;41.50
60646;BME280;46462;32.608;-117.032;2023-05-08T07:51:30;99607.78;;;22.81;41.37
60646;BME280;46462;32.608;-117.032;2023-05-08T07:54:01;99605.56;;;22.82;41.31
60646;BME280;46462;32.608;-117.032;2023-05-08T07:56:31;99603.91;;;22.86;41.19
60646;BME280;46462;32.608;-117.032;2023-05-08T07:59:03;99606.13;;;22.85;41.19
60646;BME280;46462;32.608;-117.032;2023-05-08T08:01:33;99608.41;;;22.82;41.23
60646;BME280;46462;32.608;-117.032;2023-05-08T08:04:04;99606.55;;;22.83;41.17
60646;BME280;46462;32.608;-117.032;2023-05-08T08:06:34;99606.65;;;22.87;41.07
60646;BME280;46462;32.608;-117.032;2023-05-08T08:09:05;99603.49;;;22.81;41.17
60646;BME280;46462;32.608;-117.032;2023-05-08T08:11:36;99598.22;;;22.84;41.08
60646;BME280;46462;32.608;-117.032;2023-05-08T08:14:07;99599.55;;;22.80;41.14
60646;BME280;46462;32.608;-117.032;2023-05-08T08:16:37;99598.08;;;22.78;41.15
60646;BME280;46462;32.608;-117.032;2023-05-08T08:19:08;99597.74;;;22.71;41.27
60646;BME280;46462;32.608;-117.032;2023-05-08T08:21:42;99593.76;;;22.65;41.38
60646;BME280;46462;32.608;-117.032;2023-05-08T08:24:10;99592.77;;;22.72;41.22
60646;BME280;46462;32.608;-117.032;2023-05-08T08:26:40;99595.96;;;22.67;41.31
60646;BME280;46462;32.608;-117.032;2023-05-08T08:29:11;99594.93;;;22.64;41.33
60646;BME280;46462;32.608;-117.032;2023-05-08T08:31:42;99590.37;;;22.74;41.10
60646;BME280;46462;32.608;-117.032;2023-05-08T08:34:13;99589.44;;;22.75;41.06
60646;BME280;46462;32.608;-117.032;2023-05-08T08:36:44;99588.86;;;22.65;41.24
60646;BME280;46462;32.608;-117.032;2023-05-08T08:39:14;99586.28;;;22.74;41.02
60646;BME280;46462;32.608;-117.032;2023-05-08T08:41:45;99585.66;;;22.76;40.95
60646;BME280;46462;32.608;-117.032;2023-05-08T08:44:16;99584.11;;;22.75;40.94
60646;BME280;46462;32.608;-117.032;2023-05-08T08:46:50;99590.40;;;22.71;41.03
60646;BME280;46462;32.608;-117.032;2023-05-08T08:49:19;99588.71;;;22.73;40.95
60646;BME280;46462;32.608;-117.032;2023-05-08T08:51:51;99581.38;;;22.71;40.97
60646;BME280;46462;32.608;-117.032;2023-05-08T08:54:22;99576.94;;;22.69;41.01
60646;BME280;46462;32.608;-117.032;2023-05-08T08:56:50;99576.57;;;22.66;41.01
60646;BME280;46462;32.608;-117.032;2023-05-08T08:59:23;99575.67;;;22.66;40.99
60646;BME280;46462;32.608;-117.032;2023-05-08T09:01:55;99575.84;;;22.75;40.76
60646;BME280;46462;32.608;-117.032;2023-05-08T09:04:22;99570.64;;;22.73;40.79
60646;BME280;46462;32.608;-117.032;2023-05-08T09:06:53;99563.29;;;22.68;40.85
60646;BME280;46462;32.608;-117.032;2023-05-08T09:09:24;99555.53;;;22.72;40.77
60646;BME280;46462;32.608;-117.032;2023-05-08T09:11:54;99555.58;;;22.74;40.70
60646;BME280;46462;32.608;-117.032;2023-05-08T09:14:25;99556.44;;;22.71;40.73
60646;BME280;46462;32.608;-117.032;2023-05-08T09:16:56;99555.16;;;22.68;40.77
60646;BME280;46462;32.608;-117.032;2023-05-08T09:19:27;99553.33;;;22.66;40.79
60646;BME280;46462;32.608;-117.032;2023-05-08T09:21:59;99555.16;;;22.70;40.68
60646;BME280;46462;32.608;-117.032;2023-05-08T09:26:59;99553.92;;;22.77;40.48
60646;BME280;46462;32.608;-117.032;2023-05-08T09:29:30;99555.42;;;22.76;40.49
60646;BME280;46462;32.608;-117.032;2023-05-08T09:32:00;99556.06;;;22.78;40.43
60646;BME280;46462;32.608;-117.032;2023-05-08T09:34:31;99557.33;;;22.77;40.40
60646;BME280;46462;32.608;-117.032;2023-05-08T09:37:10;99552.25;;;22.75;40.43
60646;BME280;46462;32.608;-117.032;2023-05-08T09:39:33;99551.72;;;22.78;40.36
60646;BME280;46462;32.608;-117.032;2023-05-08T09:42:04;99553.73;;;22.78;40.32
60646;BME280;46462;32.608;-117.032;2023-05-08T09:44:42;99553.63;;;22.78;40.29
60646;BME280;46462;32.608;-117.032;2023-05-08T09:47:09;99550.53;;;22.81;40.23
60646;BME280;46462;32.608;-117.032;2023-05-08T09:49:36;99551.36;;;22.77;40.28
60646;BME280;46462;32.608;-117.032;2023-05-08T09:52:07;99552.47;;;22.77;40.24
60646;BME280;46462;32.608;-117.032;2023-05-08T09:54:37;99555.52;;;22.76;40.24
60646;BME280;46462;32.608;-117.032;2023-05-08T09:57:11;99554.55;;;22.76;40.22
60646;BME280;46462;32.608;-117.032;2023-05-08T09:59:39;99553.56;;;22.74;40.25
60646;BME280;46462;32.608;-117.032;2023-05-08T10:02:11;99550.22;;;22.73;40.25
60646;BME280;46462;32.608;-117.032;2023-05-08T10:04:40;99550.84;;;22.72;40.27
60646;BME280;46462;32.608;-117.032;2023-05-08T10:07:11;99551.87;;;22.76;40.18
60646;BME280;46462;32.608;-117.032;2023-05-08T10:12:12;99545.90;;;22.78;40.10
60646;BME280;46462;32.608;-117.032;2023-05-08T10:14:43;99545.22;;;22.70;40.22
60646;BME280;46462;32.608;-117.032;2023-05-08T10:17:15;99544.08;;;22.73;40.13
60646;BME280;46462;32.608;-117.032;2023-05-08T10:19:45;99549.65;;;22.64;40.31
60646;BME280;46462;32.608;-117.032;2023-05-08T10:22:18;99554.51;;;22.68;40.24
60646;BME280;46462;32.608;-117.032;2023-05-08T10:24:47;99554.52;;;22.64;40.29
60646;BME280;46462;32.608;-117.032;2023-05-08T10:27:20;99551.02;;;22.64;40.27
60646;BME280;46462;32.608;-117.032;2023-05-08T10:29:52;99547.10;;;22.65;40.25
60646;BME280;46462;32.608;-117.032;2023-05-08T10:32:19;99545.22;;;22.63;40.24
60646;BME280;46462;32.608;-117.032;2023-05-08T10:34:52;99542.69;;;22.63;40.24
60646;BME280;46462;32.608;-117.032;2023-05-08T10:37:20;99542.87;;;22.63;40.20
60646;BME280;46462;32.608;-117.032;2023-05-08T10:39:52;99544.04;;;22.64;40.19
60646;BME280;46462;32.608;-117.032;2023-05-08T10:42:22;99546.24;;;22.65;40.17
60646;BME280;46462;32.608;-117.032;2023-05-08T10:44:53;99548.58;;;22.68;40.08
60646;BME280;46462;32.608;-117.032;2023-05-08T10:47:29;99545.16;;;22.68;40.05
60646;BME280;46462;32.608;-117.032;2023-05-08T10:49:59;99542.80;;;22.61;40.14
60646;BME280;46462;32.608;-117.032;2023-05-08T10:52:32;99542.23;;;22.60;40.19
60646;BME280;46462;32.608;-117.032;2023-05-08T10:55:12;99538.66;;;22.62;40.11
60646;BME280;46462;32.608;-117.032;2023-05-08T10:57:26;99537.10;;;22.62;40.10
60646;BME280;46462;32.608;-117.032;2023-05-08T10:59:57;99534.89;;;22.58;40.16
60646;BME280;46462;32.608;-117.032;2023-05-08T11:02:29;99533.62;;;22.60;40.09
60646;BME280;46462;32.608;-117.032;2023-05-08T11:10:06;99535.13;;;22.52;40.25
60646;BME280;46462;32.608;-117.032;2023-05-08T11:12:31;99535.78;;;22.54;40.17
60646;BME280;46462;32.608;-117.032;2023-05-08T11:15:04;99535.43;;;22.53;40.17
60646;BME280;46462;32.608;-117.032;2023-05-08T11:17:33;99536.64;;;22.55;40.13
60646;BME280;46462;32.608;-117.032;2023-05-08T11:20:08;99538.69;;;22.52;40.17
60646;BME280;46462;32.608;-117.032;2023-05-08T11:22:46;99537.89;;;22.55;40.12
60646;BME280;46462;32.608;-117.032;2023-05-08T11:25:09;99538.87;;;22.61;39.98
60646;BME280;46462;32.608;-117.032;2023-05-08T11:28:07;99539.48;;;22.58;40.00
60646;BME280;46462;32.608;-117.032;2023-05-08T11:35:13;99544.60;;;22.60;39.93
60646;BME280;46462;32.608;-117.032;2023-05-08T11:42:43;99541.85;;;22.63;39.82
60646;BME280;46462;32.608;-117.032;2023-05-08T11:45:14;99545.13;;;22.61;39.87
60646;BME280;46462;32.608;-117.032;2023-05-08T11:47:45;99541.70;;;22.61;39.84
60646;BME280;46462;32.608;-117.032;2023-05-08T11:50:15;99543.06;;;22.54;39.96
60646;BME280;46462;32.608;-117.032;2023-05-08T11:52:47;99545.25;;;22.55;39.94
60646;BME280;46462;32.608;-117.032;2023-05-08T11:55:17;99546.03;;;22.52;40.00
60646;BME280;46462;32.608;-117.032;2023-05-08T11:57:47;99545.11;;;22.55;39.93
60646;BME280;46462;32.608;-117.032;2023-05-08T12:00:19;99548.41;;;22.52;39.98
60646;BME280;46462;32.608;-117.032;2023-05-08T12:02:49;99553.88;;;22.51;40.00
60646;BME280;46462;32.608;-117.032;2023-05-08T12:05:25;99553.32;;;22.50;40.01
60646;BME280;46462;32.608;-117.032;2023-05-08T12:07:50;99552.47;;;22.48;40.04
60646;BME280;46462;32.608;-117.032;2023-05-08T12:10:21;99549.17;;;22.47;40.06
60646;BME280;46462;32.608;-117.032;2023-05-08T12:12:52;99554.09;;;22.49;40.01
60646;BME280;46462;32.608;-117.032;2023-05-08T12:15:23;99556.57;;;22.47;40.05
60646;BME280;46462;32.608;-117.032;2023-05-08T12:18:00;99560.64;;;22.45;40.07
60646;BME280;46462;32.608;-117.032;2023-05-08T12:20:25;99558.93;;;22.43;40.09
60646;BME280;46462;32.608;-117.032;2023-05-08T12:22:55;99555.81;;;22.44;40.06
60646;BME280;46462;32.608;-117.032;2023-05-08T12:25:26;99554.93;;;22.42;40.04
60646;BME280;46462;32.608;-117.032;2023-05-08T12:27:57;99557.17;;;22.46;40.00
60646;BME280;46462;32.608;-117.032;2023-05-08T12:30:28;99561.57;;;22.44;40.04
60646;BME280;46462;32.608;-117.032;2023-05-08T12:32:58;99568.30;;;22.42;40.11
60646;BME280;46462;32.608;-117.032;2023-05-08T12:35:29;99573.02;;;22.42;40.06
60646;BME280;46462;32.608;-117.032;2023-05-08T12:38:01;99575.36;;;22.40;40.08
60646;BME280;46462;32.608;-117.032;2023-05-08T12:40:32;99577.76;;;22.43;40.01
60646;BME280;46462;32.608;-117.032;2023-05-08T12:43:02;99576.08;;;22.43;39.98
60646;BME280;46462;32.608;-117.032;2023-05-08T12:45:34;99577.53;;;22.41;40.01
60646;BME280;46462;32.608;-117.032;2023-05-08T12:48:04;99577.99;;;22.49;39.85
60646;BME280;46462;32.608;-117.032;2023-05-08T12:50:35;99580.04;;;22.36;40.10
60646;BME280;46462;32.608;-117.032;2023-05-08T12:53:05;99580.43;;;22.43;39.97
60646;BME280;46462;32.608;-117.032;2023-05-08T12:55:36;99581.33;;;22.43;39.95
60646;BME280;46462;32.608;-117.032;2023-05-08T12:58:07;99581.32;;;22.37;40.04
60646;BME280;46462;32.608;-117.032;2023-05-08T13:00:39;99583.12;;;22.41;39.98
60646;BME280;46462;32.608;-117.032;2023-05-08T13:03:08;99581.54;;;22.36;40.05
60646;BME280;46462;32.608;-117.032;2023-05-08T13:05:41;99584.44;;;22.32;40.15
60646;BME280;46462;32.608;-117.032;2023-05-08T13:08:09;99588.05;;;22.37;40.06
60646;BME280;46462;32.608;-117.032;2023-05-08T13:10:44;99587.65;;;22.34;40.08
60646;BME280;46462;32.608;-117.032;2023-05-08T13:13:10;99591.42;;;22.42;39.92